• Join FlightAware (Why Join?)
  • Login
  • US Flag 
Trick or treat! (Boo!!) 
03:24PM EDT


 

Airport Tracker/Info


-or-


 

Live Flight TrackerFlight Track Log ✈ N777RP ✈ 22-May-2014 ✈ 83D - KLAN

Flight Track Log - Related Links

Times and Time Zones

All times are in EDT time to prevent confusion due to time zone crossing. See the N777RP flight status page for this flight to view local times or setup timezone preferences in your user account.

Time Position Orientation Groundspeed Altitude Reporting Facility
EDT Latitude Longitude Course Direction KTS MPH feet Rate Location/Type
09:50AM 45.7600 -84.7644 177° South 116 133 4,200  Level Minneapolis Center
09:51AM 45.7122 -84.7553 172° South 158 182 5,100 780 Climbing Minneapolis Center
09:52AM 45.6686 -84.7536 178° South 158 182 5,900 720 Climbing Minneapolis Center
09:53AM 45.6214 -84.7519 179° South 159 183 6,600 720 Climbing Minneapolis Center
09:54AM 45.5889 -84.7226 180° South  Level Estimated
09:54AM 45.5764 -84.7494 178° South 162 186 7,400  Level Minneapolis Center
09:55AM 45.5385 -84.7193 177° South  Level FlightAware Approximate
09:55AM 45.5272 -84.7469 178° South 163 188 8,300  Level Minneapolis Center
09:56AM 45.4806 -84.7436 177° South 165 190 9,100 720 Climbing Minneapolis Center
09:57AM 45.4306 -84.7400 177° South 166 191 9,900 720 Climbing Minneapolis Center
09:58AM 45.3825 -84.7369 177° South 170 196 10,700 840 Climbing Minneapolis Center
09:59AM 45.3319 -84.7367 180° South 173 199 11,700 840 Climbing Minneapolis Center
10:00AM 45.2872 -84.7428 185° South 168 193 12,500 780 Climbing Minneapolis Center
10:01AM 45.2367 -84.7489 185° South 168 193 13,300 720 Climbing Minneapolis Center
10:02AM 45.1886 -84.7519 183° South 169 194 14,000 300 Climbing Minneapolis Center
10:03AM 45.1311 -84.7561 183° South 192 221 14,000  Level Minneapolis Center
10:05AM 45.0722 -84.7583 182° South 208 239 14,000  Level Minneapolis Center
10:06AM 45.0086 -84.7617 182° South 209 241 14,000  Level Minneapolis Center
10:07AM 44.9506 -84.7661 183° South 210 242 14,000  Level Minneapolis Center
10:08AM 44.8886 -84.7708 183° South 210 242 14,000  Level Minneapolis Center
10:09AM 44.8306 -84.7758 183° South 210 242 14,000  Level Minneapolis Center
10:10AM 44.7706 -84.7797 183° South 210 242 14,000  Level Minneapolis Center
10:11AM 44.7142 -84.7844 183° South 207 238 14,000  Level Minneapolis Center
10:12AM 44.6556 -84.7858 181° South 207 238 14,000  Level Minneapolis Center
10:13AM 44.5964 -84.7789 175° South 208 239 14,000  Level Minneapolis Center
10:14AM 44.5372 -84.7717 175° South 208 239 14,000  Level Minneapolis Center
10:15AM 44.4769 -84.7664 176° South 209 241 14,000  Level Minneapolis Center
10:16AM 44.4161 -84.7592 175° South 214 246 14,000  Level Minneapolis Center
10:17AM 44.3558 -84.7522 175° South 214 246 14,000  Level Minneapolis Center
10:18AM 44.2842 -84.7447 176° South 214 246 14,100  Climbing Minneapolis Center
10:19AM 44.2247 -84.7375 175° South 214 246 14,100 -60 Level Minneapolis Center
10:20AM 44.1639 -84.7308 176° South 214 246 14,000  Descending Minneapolis Center
10:21AM 44.1039 -84.7247 176° South 215 247 14,100  Climbing Minneapolis Center
10:22AM 44.0433 -84.7186 176° South 215 247 14,100  Level Minneapolis Center
10:23AM 43.9831 -84.7122 176° South 215 247 14,100  Level Minneapolis Center
10:24AM 43.9233 -84.7058 176° South 215 247 14,100  Level Minneapolis Center
10:25AM 43.8528 -84.6983 176° South 215 247 14,100  Level Minneapolis Center
10:26AM 43.7933 -84.6925 176° South 215 247 14,100 -60 Level Minneapolis Center
10:27AM 43.7342 -84.6867 176° South 215 247 14,000 -60 Descending Minneapolis Center
10:28AM 43.6753 -84.6803 176° South 215 247 14,000  Level Minneapolis Center
10:29AM 43.6161 -84.6731 175° South 215 247 14,000  Level Minneapolis Center
10:30AM 43.5781 -84.6708 178° South 214 246 14,000  Level Cleveland Center
10:31AM 43.5181 -84.6642 175° South 214 246 14,000 -300 Level Cleveland Center
10:32AM 43.4450 -84.6558 175° South 216 249 13,400 -720 Descending Cleveland Center
10:33AM 43.3800 -84.6500 176° South 227 261 12,500 -960 Descending Cleveland Center
10:34AM 43.3128 -84.6442 176° South 238 274 11,400 -780 Descending Cleveland Center
10:35AM 43.2486 -84.6356 174° South 238 274 11,000 -240 Descending Cleveland Center
10:36AM 43.1892 -84.6294 176° South 220 253 11,000 -60 Level Cleveland Center
10:37AM 43.1322 -84.6233 176° South 210 242 10,900 -600 Descending Cleveland Center
10:38AM 43.0619 -84.6158 176° South 205 236 9,800 -1,320 Descending Cleveland Center
10:39AM 42.9936 -84.6094 176° South 231 266 8,200 -1,500 Descending Cleveland Center
10:40AM 42.9414 -84.5664 149° Southeast 237 273 6,700 -1,500 Descending Cleveland Center
10:41AM 42.8872 -84.5192 147° Southeast 225 259 5,200 -1,500 Descending Cleveland Center
10:42AM 42.8297 -84.4836 156° South 222 255 3,600 -1,260 Descending Cleveland Center
10:43AM 42.7847 -84.4517 152° Southeast 181 208 2,700 -480 Descending Cleveland Center
10:44AM 42.7797 -84.4956 261° West 146 168 2,600 -120 Descending Cleveland Center